Wenatchee, WA

2:46 PM PDT on September 22, 2014 (GMT -0700)
Stampede Pass | Change Station
CLOSE
Current Station
Airport
Location: Stampede Pass,
Elevation: 3967 ft
Nearby Weather Stations

Elev 3967 ft 47.28 °N, 121.34 °W | Updated 2 hours ago

Partly Cloudy
Partly Cloudy
53 °F
Feels Like 53 °F
N
6
Wind Variable Wind from Variable

Today
High -- | Low -- °F
--% Chance of Precip.
Yesterday
High -- | Low -- °F
Precip. -- in
6:48 AM 6:58 PM
Waning Crescent, 2% visible
Pressure 30.02 in
Visibility 0.2 miles
Clouds
Dew Point 52 °F
Humidity 96%
Rainfall 0.02 in
Snow Depth 0 in , 0 in , 0 in
UV Not available.
Pollen 3.00 out of 12
Air Quality Not available.
Flu Activity Not available.
METAR KSMP 221856Z AUTO VRB05KT M1/4SM FG VV001 12/11 A3005 RMK AO2 SLP164 T01170111 $

More Conditions Fewer Conditions

Pressure 30.02 in
Visibility 0.2 miles
Clouds
Dew Point 52 °F
Humidity 96%
Rainfall 0.02 in
Snow Depth 0 in , 0 in , 0 in
UV Not available.
Pollen 3.00 out of 12
Air Quality Not available.
Flu Activity Not available.
METAR KSMP 221856Z AUTO VRB05KT M1/4SM FG VV001 12/11 A3005 RMK AO2 SLP164 T01170111 $

More Conditions Fewer Conditions

10-Day Weather Forecast

Almanac

Astronomy

Sep. 22, 2014 Rise Set
Actual Time 6:48 AM PDT 6:58 PM PDT
Civil Twilight 6:17 AM PDT 7:29 PM PDT
Nautical Twilight 5:41 AM PDT 8:05 PM PDT
Astronomical Twilight 5:04 AM PDT 8:42 PM PDT
Moon 5:17 AM PDT 6:11 PM PDT
Length of Visible Light 13h 11m
Length of Day
12h 10m
Tomorrow will be 3m 24s shorter.
Waning Crescent, 2% of the Moon is Illuminated
Today
Waning Crescent
Sep 24
New
Oct 1
First Quarter
Oct 8
Full
Oct 15
Last Quarter

Today's Extremes

State Highs State Lows

Community

WunderPhotos

Upload Photos

1,755,537 photos uploaded!

WunderBlogs® & News

Nearby

Snow Depth

Station Depth Elevation
Stevens Pass 0 in 4070 ft
Lost Horse 0 in 5000 ft
Sasse Ridge 0 in 4200 ft
Meadows Pass 0 in 3500 ft
Dungeness 0 in 4100 ft

Earthquake Activity

City Distance Mag. Time & Date
No recent earthquake activity has been reported nearby.
Minimum magnitude displayed is 2.5.

Coastal Water Temperatures

Place Temperature
No Stations Reporting

Nearby Weather Stations